createdAt,value
2023-05-02T00:00:25.032Z,96282.56
2023-05-02T00:02:51.783Z,96171.19
2023-05-02T00:05:18.543Z,96430.53
2023-05-02T00:07:45.224Z,96100.91
2023-05-02T00:10:11.822Z,96159.16
2023-05-02T00:12:39.022Z,96281.97
2023-05-02T00:15:06.373Z,96418.81
2023-05-02T00:17:33.495Z,96441.44
2023-05-02T00:20:00.536Z,96319.72
2023-05-02T00:22:28.417Z,96305.09
2023-05-02T00:24:58.607Z,96360.91
2023-05-02T00:27:25.362Z,96195.44
2023-05-02T00:29:52.492Z,96255.72
2023-05-02T00:32:19.208Z,96307.59
2023-05-02T00:34:45.955Z,96193.16
2023-05-02T00:37:13.303Z,96223.09
2023-05-02T00:39:39.910Z,96360.09
2023-05-02T00:42:06.659Z,96487.69
2023-05-02T00:44:33.371Z,96192.22
2023-05-02T00:47:01.773Z,96472.69
2023-05-02T00:49:28.601Z,96364.88
2023-05-02T00:51:55.555Z,96341.94
2023-05-02T00:54:22.229Z,96283.53
2023-05-02T00:56:48.913Z,96392.06
2023-05-02T00:59:15.566Z,96318.88
2023-05-02T01:02:00.514Z,96478.69
2023-05-02T01:04:58.938Z,96427.16
2023-05-02T01:07:49.732Z,96408.38
2023-05-02T01:10:46.032Z,96466.13
2023-05-02T01:13:17.435Z,96377.75
2023-05-02T01:15:45.367Z,96298.25
2023-05-02T01:18:13.146Z,96398.06
2023-05-02T01:20:42.250Z,96365.47
2023-05-02T01:23:18.451Z,96392.06
2023-05-02T01:25:51.169Z,96487.56
2023-05-02T01:28:35.882Z,96485.78
2023-05-02T01:31:03.763Z,96350.94
2023-05-02T01:33:30.631Z,96284.75
2023-05-02T01:35:57.256Z,96440.53
2023-05-02T01:38:25.363Z,96415.22
2023-05-02T01:40:51.935Z,96408.28
2023-05-02T01:43:18.938Z,96467.66
2023-05-02T01:45:46.007Z,96342.72
2023-05-02T01:48:12.624Z,96423.59
2023-05-02T01:50:39.642Z,96290.47
2023-05-02T01:53:06.371Z,96284.00
2023-05-02T01:55:33.599Z,96313.75
2023-05-02T01:58:01.304Z,96400.03
2023-05-02T02:00:27.937Z,96225.06
2023-05-02T02:02:54.591Z,96444.06
2023-05-02T02:05:21.277Z,96313.56
2023-05-02T02:07:47.951Z,95989.66
2023-05-02T02:10:14.628Z,96300.97
2023-05-02T02:13:01.032Z,96451.72
2023-05-02T02:15:28.610Z,96441.94
2023-05-02T02:18:11.586Z,96482.88
2023-05-02T02:20:38.276Z,96342.94
2023-05-02T02:23:06.462Z,96500.25
2023-05-02T02:25:33.740Z,96486.09
2023-05-02T02:28:01.171Z,96254.88
2023-05-02T02:30:27.940Z,96299.19
2023-05-02T02:32:54.673Z,96332.91
2023-05-02T02:35:21.403Z,96377.19
2023-05-02T02:38:09.845Z,96496.69
2023-05-02T02:40:53.277Z,96485.81
2023-05-02T02:43:21.516Z,96463.84
2023-05-02T02:46:12.543Z,96484.22
2023-05-02T02:49:27.131Z,96489.28
2023-05-02T02:51:58.592Z,96397.81
2023-05-02T02:55:01.055Z,96434.94
2023-05-02T02:57:36.965Z,96360.84
2023-05-02T03:00:32.924Z,96489.78
2023-05-02T03:02:59.619Z,96319.16
2023-05-02T03:05:26.374Z,96126.50
2023-05-02T03:07:53.385Z,96216.25
2023-05-02T03:10:20.027Z,96385.84
2023-05-02T03:12:46.900Z,96310.63
2023-05-02T03:15:35.305Z,96508.97
2023-05-02T03:18:02.003Z,96198.28
2023-05-02T03:20:28.648Z,96349.97
2023-05-02T03:22:55.295Z,96498.59
2023-05-02T03:25:21.984Z,96277.84
2023-05-02T03:27:48.622Z,96248.19
2023-05-02T03:30:15.315Z,96343.69
2023-05-02T03:32:42.010Z,96336.22
2023-05-02T03:35:08.860Z,96552.09
2023-05-02T03:37:35.545Z,96346.16
2023-05-02T03:40:02.369Z,96476.84
2023-05-02T03:42:29.224Z,96349.75
2023-05-02T03:44:56.372Z,96301.72
2023-05-02T03:47:23.068Z,96435.09
2023-05-02T03:49:49.855Z,96486.91
2023-05-02T03:52:16.581Z,96272.31
2023-05-02T03:54:43.817Z,96317.44
2023-05-02T03:57:10.560Z,96269.16
2023-05-02T03:59:41.669Z,96366.53
2023-05-02T04:02:08.949Z,96314.59
2023-05-02T04:04:36.498Z,96525.06
2023-05-02T04:07:03.352Z,96385.06
2023-05-02T04:09:30.020Z,96405.72
2023-05-02T04:11:56.732Z,96278.94
2023-05-02T04:14:23.641Z,96396.22
2023-05-02T04:16:50.908Z,96421.91
2023-05-02T04:19:18.566Z,96488.03
2023-05-02T04:21:45.395Z,96528.47
2023-05-02T04:24:13.049Z,96309.75
2023-05-02T04:26:39.704Z,96481.56
2023-05-02T04:29:06.343Z,96530.75
2023-05-02T04:31:33.056Z,96486.25
2023-05-02T04:33:59.790Z,96513.88
2023-05-02T04:36:28.385Z,96495.53
2023-05-02T04:38:55.132Z,96506.22
2023-05-02T04:41:21.770Z,96555.97
2023-05-02T04:43:48.524Z,96258.22
2023-05-02T04:46:16.362Z,96367.13
2023-05-02T04:48:43.148Z,96542.94
2023-05-02T04:51:10.549Z,96466.44
2023-05-02T04:53:37.995Z,96516.44
2023-05-02T04:56:04.870Z,96503.44
2023-05-02T04:58:32.306Z,96535.56
2023-05-02T05:00:58.942Z,96441.03
2023-05-02T05:03:25.959Z,96269.75
2023-05-02T05:05:52.684Z,96518.34
2023-05-02T05:08:19.265Z,96195.16
2023-05-02T05:10:45.856Z,96555.13
2023-05-02T05:13:13.886Z,96324.25
2023-05-02T05:15:40.859Z,96395.09
2023-05-02T05:18:07.696Z,96558.88
2023-05-02T05:20:34.535Z,96511.13
2023-05-02T05:23:01.262Z,96461.16
2023-05-02T05:25:28.000Z,96232.50
2023-05-02T05:27:56.397Z,96184.50
2023-05-02T05:30:23.218Z,96429.72
2023-05-02T05:32:49.925Z,96493.63
2023-05-02T05:35:16.670Z,96413.88
2023-05-02T05:37:43.796Z,96331.06
2023-05-02T05:40:10.666Z,96329.88
2023-05-02T05:42:37.342Z,96509.22
2023-05-02T05:45:04.242Z,96403.00
2023-05-02T05:47:31.039Z,96433.13
2023-05-02T05:49:57.917Z,96408.78
2023-05-02T05:52:25.180Z,96327.16
2023-05-02T05:54:57.952Z,96333.34
2023-05-02T05:57:24.972Z,96312.03
2023-05-02T05:59:52.075Z,96440.50
2023-05-02T06:02:19.931Z,96480.56
2023-05-02T06:04:47.156Z,96523.56
2023-05-02T06:07:13.826Z,96392.09
2023-05-02T06:09:40.587Z,96449.25
2023-05-02T06:12:07.320Z,96444.66
2023-05-02T06:14:33.981Z,96537.22
2023-05-02T06:17:00.928Z,96431.53
2023-05-02T06:19:27.625Z,96444.31
2023-05-02T06:21:54.324Z,96607.88
2023-05-02T06:24:20.956Z,96516.47
2023-05-02T06:26:47.613Z,96584.97
2023-05-02T06:29:14.262Z,96584.50
2023-05-02T06:31:41.065Z,96590.75
2023-05-02T06:34:08.062Z,96553.94
2023-05-02T06:36:34.843Z,96578.94
2023-05-02T06:39:01.595Z,96504.22
2023-05-02T06:41:28.262Z,96511.63
2023-05-02T06:43:54.913Z,96450.69
2023-05-02T06:46:21.742Z,96509.75
2023-05-02T06:53:20.958Z,96629.28
2023-05-02T06:55:48.581Z,96564.97
2023-05-02T06:58:15.249Z,96588.72
2023-05-02T07:00:42.277Z,96575.44
2023-05-02T07:03:11.262Z,96429.88
2023-05-02T07:05:38.105Z,96544.38
2023-05-02T07:08:05.068Z,96567.84
2023-05-02T07:10:31.968Z,96487.03
2023-05-02T07:12:58.580Z,96590.13
2023-05-02T07:15:25.220Z,96554.16
2023-05-02T07:17:51.956Z,96602.56
2023-05-02T07:20:18.718Z,96593.63
2023-05-02T07:22:45.483Z,96413.34
2023-05-02T07:25:12.095Z,96486.41
2023-05-02T07:27:38.703Z,96523.72
2023-05-02T07:30:06.713Z,96423.00
2023-05-02T07:32:33.529Z,96602.41
2023-05-02T07:35:00.322Z,96578.31
2023-05-02T07:37:27.179Z,96662.41
2023-05-02T07:39:53.876Z,96596.63
2023-05-02T07:42:20.494Z,96625.44
2023-05-02T07:44:47.366Z,96590.72
2023-05-02T07:47:13.983Z,96612.59
2023-05-02T07:49:40.571Z,96664.63
2023-05-02T07:52:07.283Z,96620.25
2023-05-02T07:54:34.092Z,96336.19
2023-05-02T07:57:03.029Z,96660.72
2023-05-02T07:59:31.115Z,96248.03
2023-05-02T08:01:57.900Z,96521.28
2023-05-02T08:04:24.727Z,96617.97
2023-05-02T08:06:51.925Z,96540.88
2023-05-02T08:09:18.799Z,96512.78
2023-05-02T08:11:45.643Z,96526.91
2023-05-02T08:14:12.401Z,96520.03
2023-05-02T08:16:39.145Z,96503.47
2023-05-02T08:19:05.939Z,96649.63
2023-05-02T08:21:32.845Z,96654.50
2023-05-02T08:23:59.533Z,96686.69
2023-05-02T08:26:26.995Z,96559.81
2023-05-02T08:28:54.802Z,96689.09
2023-05-02T08:31:21.553Z,96597.50
2023-05-02T08:33:48.423Z,96485.59
2023-05-02T08:36:16.097Z,96705.44
2023-05-02T08:38:43.208Z,96615.53
2023-05-02T08:41:14.262Z,96671.84
2023-05-02T08:43:41.214Z,96544.69
2023-05-02T08:46:08.519Z,96668.53
2023-05-02T08:48:59.171Z,96701.00
2023-05-02T08:51:25.902Z,96554.28
2023-05-02T08:53:52.607Z,96671.66
2023-05-02T08:56:19.627Z,96671.31
2023-05-02T08:58:46.435Z,96603.94
2023-05-02T09:01:17.654Z,96537.94
2023-05-02T09:03:45.085Z,96488.84
2023-05-02T09:06:18.799Z,96716.44
2023-05-02T09:08:49.493Z,96638.47
2023-05-02T09:11:16.616Z,96563.50
2023-05-02T09:13:46.697Z,96719.59
2023-05-02T09:16:14.030Z,96658.09
2023-05-02T09:18:45.506Z,96611.44
2023-05-02T09:21:21.125Z,96720.69
2023-05-02T09:23:52.866Z,96736.47
2023-05-02T09:26:21.191Z,96633.50
2023-05-02T09:28:52.077Z,96710.94
2023-05-02T09:33:52.944Z,96681.28
2023-05-02T09:36:20.556Z,96621.97
2023-05-02T09:38:49.541Z,96476.09
2023-05-02T09:41:18.006Z,96626.13
2023-05-02T09:43:45.505Z,96601.50
2023-05-02T09:46:12.265Z,96715.03
2023-05-02T09:48:51.845Z,96710.25
2023-05-02T09:51:18.820Z,96674.16
2023-05-02T09:53:45.738Z,96694.00
2023-05-02T09:56:12.373Z,96664.59
2023-05-02T09:58:39.067Z,96624.66
2023-05-02T10:01:06.091Z,96653.38
2023-05-02T10:03:32.708Z,96629.19
2023-05-02T10:05:59.356Z,96675.66
2023-05-02T10:08:27.382Z,96615.69
2023-05-02T10:10:58.185Z,96635.81
2023-05-02T10:13:27.439Z,96679.38
2023-05-02T10:16:02.031Z,96660.25
2023-05-02T10:18:43.777Z,96744.31
2023-05-02T10:21:13.531Z,96680.03
2023-05-02T10:23:44.243Z,96627.03
2023-05-02T10:26:15.444Z,96660.94
2023-05-02T10:28:42.602Z,96660.22
2023-05-02T10:31:13.363Z,96705.13
2023-05-02T10:33:40.196Z,96726.09
2023-05-02T10:36:13.159Z,96476.47
2023-05-02T10:38:40.157Z,96521.56
2023-05-02T10:41:12.824Z,96596.09
2023-05-02T10:43:39.498Z,96695.31
2023-05-02T10:46:35.625Z,96731.75
2023-05-02T10:49:08.746Z,96735.34
2023-05-02T10:51:36.368Z,96744.84
2023-05-02T10:54:21.776Z,96694.00
2023-05-02T10:57:03.720Z,96730.34
2023-05-02T10:59:31.964Z,96611.84
2023-05-02T11:01:58.653Z,96710.31
2023-05-02T11:04:25.484Z,96589.94
2023-05-02T11:07:01.240Z,96730.31
2023-05-02T11:09:28.014Z,96725.66
2023-05-02T11:11:57.781Z,96629.69
2023-05-02T11:14:33.418Z,96728.84
2023-05-02T11:17:00.076Z,96729.59
2023-05-02T11:19:31.564Z,96743.03
2023-05-02T11:22:20.153Z,96731.09
2023-05-02T11:24:50.205Z,96666.84
2023-05-02T11:27:38.631Z,96736.09
2023-05-02T11:30:09.710Z,96327.38
2023-05-02T11:32:45.983Z,96731.75
2023-05-02T11:35:26.801Z,96740.31
2023-05-02T11:38:00.909Z,96683.09
2023-05-02T11:40:28.232Z,96471.72
2023-05-02T11:42:55.049Z,96690.31
2023-05-02T11:45:21.925Z,96465.19
2023-05-02T11:47:48.601Z,96693.66
2023-05-02T11:50:15.553Z,96651.47
2023-05-02T11:52:44.265Z,96684.00
2023-05-02T11:55:13.352Z,96525.94
2023-05-02T11:57:40.088Z,96559.91
2023-05-02T12:00:08.094Z,96680.75
2023-05-02T12:02:42.652Z,96645.16
2023-05-02T12:05:13.763Z,96693.25
2023-05-02T12:07:49.461Z,96750.88
2023-05-02T12:10:16.361Z,96766.63
2023-05-02T12:12:44.111Z,96762.72
2023-05-02T12:15:11.728Z,96717.50
2023-05-02T12:17:42.868Z,96699.81
2023-05-02T12:20:10.443Z,96545.38
2023-05-02T12:22:37.811Z,96734.81
2023-05-02T12:25:07.977Z,96754.47
2023-05-02T12:27:35.256Z,96798.34
2023-05-02T12:30:02.964Z,96749.22
2023-05-02T12:32:31.714Z,96741.78
2023-05-02T12:34:59.027Z,96745.41
2023-05-02T12:37:26.443Z,96818.53
2023-05-02T12:39:53.633Z,96758.25
2023-05-02T12:42:21.206Z,96826.41
2023-05-02T12:44:48.841Z,96805.66
2023-05-02T12:47:16.691Z,96581.66
2023-05-02T12:49:53.651Z,96771.19
2023-05-02T12:52:21.342Z,96792.50
2023-05-02T12:54:48.614Z,96719.13
2023-05-02T12:57:25.095Z,96774.41
2023-05-02T12:59:53.493Z,96820.94
2023-05-02T13:02:21.222Z,96795.31
2023-05-02T13:04:47.894Z,96832.56
2023-05-02T13:07:14.601Z,96775.41
2023-05-02T13:09:41.359Z,96831.41
2023-05-02T13:12:08.256Z,96805.25
2023-05-02T13:14:35.001Z,96707.72
2023-05-02T13:17:01.867Z,96501.75
2023-05-02T13:19:31.475Z,96666.19
2023-05-02T13:21:58.209Z,96796.09
2023-05-02T13:24:24.921Z,96406.59
2023-05-02T13:26:51.860Z,96769.34
2023-05-02T13:29:18.612Z,96813.00
2023-05-02T13:31:45.227Z,96764.28
2023-05-02T13:34:11.874Z,96793.97
2023-05-02T13:36:45.945Z,96777.56
2023-05-02T13:39:13.831Z,96740.31
2023-05-02T13:41:40.720Z,96514.59
2023-05-02T13:44:07.752Z,96797.75
2023-05-02T13:46:36.769Z,96818.09
2023-05-02T13:49:04.221Z,96739.50
2023-05-02T13:51:31.755Z,96848.66
2023-05-02T13:53:58.991Z,96711.31
2023-05-02T13:56:25.777Z,96738.97
2023-05-02T13:58:52.490Z,96583.88
2023-05-02T14:01:19.387Z,96592.72
2023-05-02T14:03:46.359Z,96816.09
2023-05-02T14:06:13.085Z,96568.84
2023-05-02T14:08:39.771Z,96726.34
2023-05-02T14:14:47.311Z,96695.97
2023-05-02T14:17:14.021Z,96733.66
2023-05-02T14:19:40.798Z,96785.94
2023-05-02T14:22:07.703Z,96785.03
2023-05-02T14:24:34.327Z,96665.31
2023-05-02T14:27:01.579Z,96475.56
2023-05-02T14:29:44.552Z,96814.50
2023-05-02T14:32:11.163Z,96818.53
2023-05-02T14:34:37.846Z,96804.28
2023-05-02T14:37:04.531Z,96782.00
2023-05-02T14:39:31.160Z,96741.38
2023-05-02T14:41:57.811Z,96654.59
2023-05-02T14:44:24.448Z,96738.94
2023-05-02T14:46:54.576Z,96834.06
2023-05-02T14:49:21.253Z,96646.84
2023-05-02T14:51:48.908Z,96638.31
2023-05-02T14:54:16.875Z,96681.22
2023-05-02T14:56:43.819Z,96783.72
2023-05-02T14:59:10.649Z,96835.16
2023-05-02T15:01:37.740Z,96797.53
2023-05-02T15:04:07.284Z,96739.06
2023-05-02T15:06:36.469Z,96768.66
2023-05-02T15:09:03.504Z,96683.84
2023-05-02T15:11:30.222Z,96887.72
2023-05-02T15:13:59.275Z,96877.84
2023-05-02T15:16:27.402Z,96630.03
2023-05-02T15:18:54.363Z,96772.97
2023-05-02T15:21:21.370Z,96722.53
2023-05-02T15:23:48.099Z,96712.09
2023-05-02T15:26:14.817Z,96725.47
2023-05-02T15:28:41.767Z,96677.34
2023-05-02T15:31:08.510Z,96738.91
2023-05-02T15:33:35.194Z,96733.63
2023-05-02T15:36:02.567Z,96801.25
2023-05-02T15:38:29.273Z,96731.44
2023-05-02T15:40:59.597Z,96873.38
2023-05-02T15:43:26.676Z,96889.25
2023-05-02T15:45:54.125Z,96906.09
2023-05-02T15:48:21.244Z,96790.06
2023-05-02T15:50:48.404Z,96870.78
2023-05-02T15:53:18.085Z,96867.22
2023-05-02T15:55:45.925Z,96839.09
2023-05-02T15:58:13.014Z,96876.06
2023-05-02T16:00:39.714Z,96865.53
2023-05-02T16:03:06.524Z,96863.81
2023-05-02T16:05:33.426Z,96851.59
2023-05-02T16:08:00.317Z,96892.97
2023-05-02T16:10:28.484Z,96907.47
2023-05-02T16:12:56.489Z,96688.72
2023-05-02T16:15:23.244Z,96798.38
2023-05-02T16:17:50.388Z,96822.28
2023-05-02T16:20:17.773Z,96781.94
2023-05-02T16:22:46.533Z,96866.75
2023-05-02T16:25:16.658Z,96800.19
2023-05-02T16:27:43.351Z,96850.66
2023-05-02T16:30:10.369Z,96821.34
2023-05-02T16:32:40.572Z,96707.28
2023-05-02T16:35:10.893Z,96872.31
2023-05-02T16:37:37.667Z,96904.88
2023-05-02T16:40:05.951Z,96911.09
2023-05-02T16:42:33.168Z,96858.94
2023-05-02T16:44:59.796Z,96846.75
2023-05-02T16:47:26.987Z,96858.13
2023-05-02T16:49:57.376Z,96905.41
2023-05-02T16:52:24.320Z,96905.56
2023-05-02T16:54:50.994Z,96709.56
2023-05-02T16:57:19.774Z,96870.69
2023-05-02T16:59:52.452Z,96896.91
2023-05-02T17:02:20.977Z,96872.28
2023-05-02T17:04:48.386Z,96850.31
2023-05-02T17:07:14.971Z,96786.66
2023-05-02T17:09:41.902Z,96950.50
2023-05-02T17:12:12.091Z,96726.38
2023-05-02T17:14:41.268Z,96827.81
2023-05-02T17:17:08.295Z,96914.94
2023-05-02T17:19:36.181Z,96815.41
2023-05-02T17:22:05.164Z,96817.03
2023-05-02T17:24:32.127Z,96875.00
2023-05-02T17:26:58.833Z,96927.13
2023-05-02T17:29:25.824Z,96896.75
2023-05-02T17:31:52.639Z,96933.22
2023-05-02T17:34:19.241Z,96783.31
2023-05-02T17:36:46.402Z,96898.53
2023-05-02T17:39:13.635Z,96809.50
2023-05-02T17:41:40.478Z,96800.22
2023-05-02T17:44:07.192Z,96665.56
2023-05-02T17:46:34.085Z,96662.34
2023-05-02T17:49:01.197Z,96926.81
2023-05-02T17:51:28.103Z,96923.50
2023-05-02T17:54:23.681Z,96974.88
2023-05-02T17:56:50.976Z,96897.56
2023-05-02T17:59:19.012Z,96952.25
2023-05-02T18:01:45.744Z,96637.81
2023-05-02T18:04:14.155Z,96928.03
2023-05-02T18:06:40.948Z,96957.00
2023-05-02T18:09:07.621Z,96804.34
2023-05-02T18:11:34.894Z,96929.03
2023-05-02T18:14:04.139Z,96887.75
2023-05-02T18:16:32.175Z,96809.66
2023-05-02T18:19:01.262Z,96893.84
2023-05-02T18:21:28.271Z,96791.25
2023-05-02T18:23:56.914Z,96969.03
2023-05-02T18:26:23.567Z,96965.63
2023-05-02T18:28:53.406Z,96929.66
2023-05-02T18:31:20.730Z,97013.91
2023-05-02T18:33:47.696Z,96977.00
2023-05-02T18:36:15.703Z,96839.50
2023-05-02T18:38:42.337Z,96870.22
2023-05-02T18:41:09.441Z,96972.63
2023-05-02T18:43:36.378Z,96960.38
2023-05-02T18:46:03.170Z,97019.16
2023-05-02T18:48:29.909Z,96906.19
2023-05-02T18:50:58.255Z,96677.97
2023-05-02T18:53:26.443Z,96767.13
2023-05-02T18:55:53.963Z,96659.97
2023-05-02T18:58:21.670Z,96867.34
2023-05-02T19:00:48.632Z,96798.84
2023-05-02T19:03:15.477Z,96835.31
2023-05-02T19:05:42.757Z,96930.16
2023-05-02T19:08:09.668Z,96817.91
2023-05-02T19:10:36.848Z,97017.47
2023-05-02T19:13:03.523Z,96623.00
2023-05-02T19:15:30.256Z,96763.38
2023-05-02T19:17:57.211Z,96840.88
2023-05-02T19:20:24.097Z,96723.34
2023-05-02T19:22:54.110Z,96802.84
2023-05-02T19:25:24.493Z,96821.22
2023-05-02T19:27:52.428Z,96854.66
2023-05-02T19:30:20.848Z,96885.88
2023-05-02T19:32:48.019Z,96976.72
2023-05-02T19:35:15.659Z,96759.19
2023-05-02T19:37:44.042Z,97031.44
2023-05-02T19:40:11.356Z,96820.88
2023-05-02T19:42:39.363Z,96826.88
2023-05-02T19:45:06.646Z,96778.03
2023-05-02T19:47:33.711Z,96866.06
2023-05-02T19:50:00.801Z,96802.41
2023-05-02T19:52:27.500Z,96808.97
2023-05-02T19:54:54.174Z,96900.41
2023-05-02T19:57:20.992Z,96972.50
2023-05-02T19:59:47.642Z,97068.63
2023-05-02T20:02:14.355Z,96846.72
2023-05-02T20:04:41.055Z,96841.53
2023-05-02T20:07:07.759Z,96878.06
2023-05-02T20:09:34.522Z,97034.34
2023-05-02T20:12:01.255Z,96891.56
2023-05-02T20:14:27.978Z,97034.25
2023-05-02T20:17:01.292Z,96889.72
2023-05-02T20:19:29.497Z,96873.81
2023-05-02T20:21:56.361Z,97003.22
2023-05-02T20:24:22.998Z,96759.75
2023-05-02T20:26:49.708Z,96854.25
2023-05-02T20:29:16.537Z,96818.66
2023-05-02T20:31:43.359Z,96946.44
2023-05-02T20:34:10.147Z,97036.09
2023-05-02T20:36:37.235Z,96870.13
2023-05-02T20:39:05.523Z,96952.72
2023-05-02T20:41:32.395Z,97123.75
2023-05-02T20:44:01.334Z,96794.09
2023-05-02T20:46:28.015Z,96940.78
2023-05-02T20:48:54.831Z,97116.97
2023-05-02T20:51:21.685Z,96900.88
2023-05-02T20:53:49.058Z,96918.22
2023-05-02T20:56:15.850Z,96824.75
2023-05-02T20:58:44.702Z,97061.03
2023-05-02T21:01:12.199Z,96881.09
2023-05-02T21:03:41.195Z,96871.25
2023-05-02T21:06:08.037Z,96915.22
2023-05-02T21:08:34.673Z,96948.63
2023-05-02T21:11:01.341Z,96986.44
2023-05-02T21:13:28.010Z,97026.81
2023-05-02T21:15:54.728Z,96987.09
2023-05-02T21:18:21.440Z,96795.97
2023-05-02T21:20:51.222Z,96698.06
2023-05-02T21:23:18.522Z,96924.41
2023-05-02T21:25:45.186Z,96914.94
2023-05-02T21:28:12.525Z,97018.41
2023-05-02T21:30:39.151Z,97023.47
2023-05-02T21:33:05.901Z,97032.19
2023-05-02T21:35:34.156Z,97060.81
2023-05-02T21:38:01.616Z,97092.69
2023-05-02T21:40:29.467Z,96851.06
2023-05-02T21:42:56.209Z,96966.13
2023-05-02T21:49:09.757Z,97128.31
2023-05-02T21:51:38.701Z,96952.94
2023-05-02T21:54:05.434Z,97041.22
2023-05-02T21:56:32.251Z,96917.59
2023-05-02T21:58:59.098Z,97082.25
2023-05-02T22:01:26.006Z,96863.13
2023-05-02T22:03:52.677Z,96724.50
2023-05-02T22:06:19.356Z,96965.91
2023-05-02T22:08:46.078Z,96935.25
2023-05-02T22:11:12.733Z,97101.06
2023-05-02T22:13:39.356Z,96972.84
2023-05-02T22:16:06.831Z,96863.38
2023-05-02T22:18:33.727Z,96782.00
2023-05-02T22:21:01.596Z,97047.75
2023-05-02T22:23:28.297Z,96943.13
2023-05-02T22:25:55.038Z,97123.41
2023-05-02T22:28:21.706Z,96940.53
2023-05-02T22:30:48.340Z,96998.88
2023-05-02T22:33:15.118Z,97048.06
2023-05-02T22:35:42.166Z,96911.56
2023-05-02T22:38:11.624Z,97123.84
2023-05-02T22:40:38.307Z,96991.38
2023-05-02T22:43:05.179Z,97033.22
2023-05-02T22:45:32.036Z,96907.50
2023-05-02T22:47:58.976Z,96982.41
2023-05-02T22:50:27.609Z,97042.88
2023-05-02T22:52:57.453Z,97105.13
2023-05-02T22:55:24.258Z,96751.56
2023-05-02T22:57:52.095Z,96889.25
2023-05-02T23:00:18.857Z,97091.16
2023-05-02T23:02:45.889Z,96901.44
2023-05-02T23:05:12.681Z,96877.59
2023-05-02T23:07:39.336Z,96968.38
2023-05-02T23:10:06.801Z,96927.28
2023-05-02T23:12:33.496Z,96831.28
2023-05-02T23:15:00.361Z,97070.75
2023-05-02T23:17:27.155Z,97040.09
2023-05-02T23:19:53.862Z,97069.94
2023-05-02T23:22:20.520Z,97021.53
2023-05-02T23:24:47.849Z,96975.91
2023-05-02T23:27:14.575Z,97022.75
2023-05-02T23:29:41.256Z,96999.22
2023-05-02T23:32:08.162Z,97143.22
2023-05-02T23:34:36.545Z,96939.72
2023-05-02T23:37:03.299Z,96945.31
2023-05-02T23:39:29.929Z,97081.16
2023-05-02T23:41:56.788Z,96795.81
2023-05-02T23:44:23.487Z,96976.50
2023-05-02T23:46:50.532Z,96938.50
2023-05-02T23:49:17.230Z,96815.63
2023-05-02T23:51:43.944Z,97133.16
2023-05-02T23:54:10.964Z,96857.59
2023-05-02T23:56:37.611Z,96925.69
2023-05-02T23:59:04.759Z,97047.75
